Ana Sayfa
METAR-TAF:

METAR-TAF

Havaalanları :

Avenger Field

Sweetwater, Teksas, Amerika Birleşik Devletleri

Enlem: 32-28-02N, Boylam: 100-27-59W, yükseklik: 725 m

Güncel hava durumu gözlemi

Rapor saat 05:30 UTC de 42 dakika önce yapıldı.
Rüzgar güney/güneybatıdan 14 kt ve 20 kt'a kadar ani rüzgarlar
Sıcaklık 17°C
Nem 34%
Basınç 1012 hPa
Görüş mesafesi: 16.1 km
7000 ft yükseklikte parçalı çok bulutlu
8000 ft yükseklikte parçalı çok bulutlu

METAR: KSWW 280530Z AUTO 21014G20KT 10SM BKN070 BKN080 17/01 A2987 RMK AO2 T01650005

Saat: 00:12 (06:12 UTC)


TAF: eksik

4.000'den fazla havaalanı için hava durumu gözlemleri ve tahminleri (METAR ve TAF raporları).

Kullanılabilir istasyonlar harita üzerinde sarı ve kırmızı noktalarla gösterilir.

İstasyonun adını görmek için fareyi noktanın üzerinde gezdirin.

Sonrasında hava gözlem ve tahminlerini görmek için tıklayın.

Haritayı değiştirmek için: yaklaştırmak için siyah artı işaretli yeşil düğmeye ve uzaklaştırmak için de eksi işaretli düğmeye hızla tıklayın; bitişik haritalar için yeşil okları kullanın.


METAR-TAF: